METAR Analyzer

一覧表示

Hello, Guest. (Login)

KJFK/JFK  -  ジョン・F・ケネディ

観測日時
2020-10-20 02:51 (UTC) (56分前)
気温
15.6
露点
13.3
湿数
2.3
相対湿度
86.2%
QNH
1025.7hPa
推定現地気圧
1025.2hPa
推定海面気圧
1025.7hPa
体感温度
7.1
(無風時)
17.4
HI
15.5
気温前日比
+2.8
体感温度前日比
+1.6
HI前日比
+3.4
水平視程
>10SM
鉛直視程
データなし
雲底高度
25000ft AGL
V/I
VMC (VFR)
RVR
No RVR data
卓越風
8kt from 130°
ガスト
No gust
降水
報告なし
その他の天気
報告なし
少しの雲 @ 1500ft AGL / 散在する雲 @ 13000ft AGL / 隙間のある雲 @ 25000ft AGL

KJFK 200251Z 13008KT 10SM FEW015 SCT130 BKN250 16/13 A3029 RMK AO2 SLP256 T01560133 $

KLGA/LGA  -  ラガーディア

観測日時
2020-10-20 02:51 (UTC) (56分前)
気温
16.1
露点
12.2
湿数
3.9
相対湿度
77.7%
QNH
1025.4hPa
推定現地気圧
1024.7hPa
推定海面気圧
1025.4hPa
体感温度
9.5
(無風時)
17.6
HI
15.8
気温前日比
+2.2
体感温度前日比
+2.6
HI前日比
+2.7
水平視程
>10SM
鉛直視程
データなし
雲底高度
25000ft AGL
V/I
VMC (VFR)
RVR
No RVR data
卓越風
5kt from 160°
ガスト
No gust
降水
報告なし
その他の天気
報告なし
少しの雲 @ 1500ft AGL / 少しの雲 @ 20000ft AGL / 隙間のある雲 @ 25000ft AGL

KLGA 200251Z 16005KT 10SM FEW015 FEW200 BKN250 16/12 A3028 RMK AO2 SLP254 T01610122 55008

KEWR/EWR  -  ニューアーク・リバティー

観測日時
2020-10-20 02:51 (UTC) (56分前)
気温
16.1
露点
13.3
湿数
2.8
相対湿度
83.5%
QNH
1025.4hPa
推定現地気圧
1024.8hPa
推定海面気圧
1025.4hPa
体感温度
11.2
(無風時)
17.8
HI
15.9
気温前日比
+1.7
体感温度前日比
+2
HI前日比
+2.2
水平視程
>10SM
鉛直視程
データなし
雲底高度
25000ft AGL
V/I
VMC (VFR)
RVR
No RVR data
卓越風
3kt from 120°
ガスト
No gust
降水
報告なし
その他の天気
報告なし
少しの雲 @ 1500ft AGL / 隙間のある雲 @ 25000ft AGL

KEWR 200251Z 12003KT 10SM FEW015 BKN250 16/13 A3028 RMK AO2 SLP254 T01610133 55006

KIAD/IAD  -  ワシントン・ダレス

観測日時
2020-10-20 02:52 (UTC) (55分前)
気温
14.4
露点
12.8
湿数
1.6
相対湿度
90.1%
QNH
1024.4hPa
推定現地気圧
1012.9hPa
推定海面気圧
1024.4hPa
体感温度
16.4
(無風時)
16.4
HI
14.2
気温前日比
+2.2
体感温度前日比
+1.9
HI前日比
+2.4
水平視程
>10SM
鉛直視程
データなし
雲底高度
No dense clouds
V/I
VMC (VFR)
RVR
No RVR data
卓越風
静穏
ガスト
No gust
降水
報告なし
その他の天気
報告なし
散在する雲 @ 3500ft AGL

KIAD 200252Z 00000KT 10SM SCT035 14/13 A3025 RMK AO2 SLP242 T01440128 53005

KDTW/DTW  -  デトロイト・メトロポリタン・ウェイン・カウンティ

観測日時
2020-10-20 02:53 (UTC) (54分前)
気温
6.1
露点
3.9
湿数
2.2
相対湿度
85.8%
QNH
1022.4hPa
推定現地気圧
998.8hPa
推定海面気圧
1023.1hPa
体感温度
-3
(無風時)
9.4
HI
5
気温前日比
-1.7
体感温度前日比
-0.4
HI前日比
-2
水平視程
8SM
鉛直視程
データなし
雲底高度
4000ft AGL
V/I
VMC (VFR)
RVR
No RVR data
卓越風
5kt from 350°
ガスト
No gust
降水
弱い雨 (降水強度: 0mm/h)
その他の天気
報告なし
全天を覆う雲 @ 4000ft AGL

KDTW 200253Z 35005KT 8SM -RA OVC040 06/04 A3019 RMK AO2 RAE03B39 SLP226 P0000 60001 T00610039 56004

KDET/DET  -  コールマン・A・ヤング

観測日時
2020-10-20 02:53 (UTC) (54分前)
気温
6.7
露点
3.9
湿数
2.8
相対湿度
82.3%
QNH
1022.0hPa
推定現地気圧
999.1hPa
推定海面気圧
1022.6hPa
体感温度
-2.1
(無風時)
9.9
HI
5.6
気温前日比
-1.6
体感温度前日比
-1.4
HI前日比
-1.8
水平視程
>10SM
鉛直視程
データなし
雲底高度
4000ft AGL
V/I
VMC (VFR)
RVR
No RVR data
卓越風
5kt from 10°
ガスト
No gust
降水
報告なし
その他の天気
報告なし
全天を覆う雲 @ 4000ft AGL

KDET 200253Z 01005KT 10SM OVC040 07/04 A3018 RMK AO2 SLP223 60002 T00670039 58005

KMCO/MCO  -  オーランド

観測日時
2020-10-20 02:53 (UTC) (54分前)
気温
23.9
露点
23.3
湿数
0.6
相対湿度
96.5%
QNH
1017.3hPa
推定現地気圧
1013.8hPa
推定海面気圧
1017.2hPa
体感温度
18.8
(無風時)
25
HI
24.9
気温前日比
±0
体感温度前日比
+1.1
HI前日比
+0.1
水平視程
>10SM
鉛直視程
データなし
雲底高度
25000ft AGL
V/I
VMC (VFR)
RVR
No RVR data
卓越風
7kt from 40°
ガスト
No gust
降水
報告なし
その他の天気
報告なし
少しの雲 @ 2000ft AGL / 散在する雲 @ 3500ft AGL / 全天を覆う雲 @ 25000ft AGL

KMCO 200253Z 04007KT 10SM FEW020 SCT035 OVC250 24/23 A3004 RMK AO2 SLP171 T02390233 53012 $

KMIA/MIA  -  マイアミ

観測日時
2020-10-20 02:53 (UTC) (54分前)
気温
27.2
露点
23.9
湿数
3.3
相対湿度
82.2%
QNH
1013.9hPa
推定現地気圧
1013.5hPa
推定海面気圧
1013.8hPa
体感温度
21.9
(無風時)
26.9
HI
30.4
気温前日比
-0.6
体感温度前日比
-0.1
HI前日比
-0.1
水平視程
>10SM
鉛直視程
データなし
雲底高度
4900ft AGL
V/I
VMC (VFR)
RVR
No RVR data
卓越風
10kt from 70°
ガスト
14kt
降水
報告なし
その他の天気
報告なし
散在する雲 @ 2800ft AGL / 隙間のある雲 @ 4900ft AGL / 全天を覆う雲 @ 18000ft AGL

KMIA 200253Z 07010G14KT 10SM SCT028 BKN049 OVC180 27/24 A2994 RMK AO2 LTG DSNT N RAB14E25 SLP140 CB DSNT N MOV W P0001 60001 T02720239 53005

KFLL/FLL  -  フォートローダーデール・ハリウッド

観測日時
2020-10-20 03:18 (UTC) (29分前)
気温
26.7
露点
25
湿数
1.7
相対湿度
90.4%
QNH
1013.9hPa
推定現地気圧
1011.5hPa
推定海面気圧
1013.8hPa
体感温度
21.5
(無風時)
27.1
HI
30.3
気温前日比
データなし
体感温度前日比
データなし
HI前日比
データなし
水平視程
>10SM
鉛直視程
データなし
雲底高度
3200ft AGL
V/I
VMC (VFR)
RVR
No RVR data
卓越風
11kt from 70°
ガスト
16kt
降水
報告なし
その他の天気
報告なし
散在する積乱雲 @ 2000ft AGL / 隙間のある雲 @ 3200ft AGL / 隙間のある雲 @ 11000ft AGL / 全天を覆う雲 @ 15000ft AGL

KFLL 200318Z 07011G16KT 10SM SCT020CB BKN032 BKN110 OVC150 27/25 A2994 RMK AO2 RAE18 TSB0259E18 TS DSIPTD W CB W AND DSNT W MOV W T02670250 PNO $

KTPA/TPA  -  タンパ

観測日時
2020-10-20 02:53 (UTC) (54分前)
気温
24.4
露点
21.1
湿数
3.3
相対湿度
81.9%
QNH
1017.3hPa
推定現地気圧
1016.3hPa
推定海面気圧
1017.2hPa
体感温度
19.6
(無風時)
24.6
HI
25
気温前日比
-1.2
体感温度前日比
+0.1
HI前日比
-1
水平視程
>10SM
鉛直視程
データなし
雲底高度
9000ft AGL
V/I
VMC (VFR)
RVR
No RVR data
卓越風
5kt from 40°
ガスト
No gust
降水
報告なし
その他の天気
報告なし
散在する雲 @ 800ft AGL / 散在する雲 @ 2400ft AGL / 隙間のある雲 @ 9000ft AGL / 隙間のある雲 @ 16000ft AGL

KTPA 200253Z 04005KT 10SM SCT008 SCT024 BKN090 BKN160 24/21 A3004 RMK AO2 SLP172 T02440211 53014

KORD/ORD  -  シカゴ・オヘア

観測日時
2020-10-20 02:51 (UTC) (56分前)
気温
4.4
露点
1.7
湿数
2.7
相対湿度
82.6%
QNH
1023.4hPa
推定現地気圧
998.6hPa
推定海面気圧
1024.3hPa
体感温度
-7.5
(無風時)
8
HI
3.1
気温前日比
±0
体感温度前日比
-3.6
HI前日比
±0
水平視程
9SM
鉛直視程
データなし
雲底高度
1300ft AGL
V/I
VMC (VFR)
RVR
No RVR data
卓越風
8kt from 10°
ガスト
No gust
降水
報告なし
その他の天気
報告なし
少しの雲 @ 900ft AGL / 全天を覆う雲 @ 1300ft AGL

KORD 200251Z 01008KT 9SM FEW009 OVC013 04/02 A3022 RMK AO2 SLP238 T00440017 53002 $

KMSP/MSP  -  ミネアポリス・セントポール

観測日時
2020-10-20 02:53 (UTC) (54分前)
気温
-0.6
露点
-1.1
湿数
0.5
相対湿度
96.4%
QNH
1025.1hPa
推定現地気圧
994.3hPa
推定海面気圧
1026.7hPa
体感温度
-10.9
(無風時)
3.2
HI
-2.1
気温前日比
-1.2
体感温度前日比
-6.4
HI前日比
-0.2
水平視程
9SM
鉛直視程
データなし
雲底高度
No dense clouds
V/I
VMC (VFR)
RVR
No RVR data
卓越風
4kt from 140°
ガスト
No gust
降水
報告なし
その他の天気
報告なし
少しの雲 @ 1000ft AGL / 少しの雲 @ 9000ft AGL / 散在する雲 @ 15000ft AGL

KMSP 200253Z 14004KT 9SM FEW010 FEW090 SCT150 M01/M01 A3027 RMK AO2 SLP261 60000 T10061011 53002

KIAH/IAH  -  ヒューストン/ジョージ・ブッシュ・インターコンチネンタル

観測日時
2020-10-20 02:53 (UTC) (54分前)
気温
25
露点
22.8
湿数
2.2
相対湿度
87.6%
QNH
1016.6hPa
推定現地気圧
1013.1hPa
推定海面気圧
1016.5hPa
体感温度
19.7
(無風時)
25.4
HI
25.8
気温前日比
±0
体感温度前日比
-0.3
HI前日比
-0.1
水平視程
>10SM
鉛直視程
データなし
雲底高度
No dense clouds
V/I
VMC (VFR)
RVR
No RVR data
卓越風
8kt from 130°
ガスト
No gust
降水
報告なし
その他の天気
報告なし
少しの雲 @ 2200ft AGL / 散在する雲 @ 25000ft AGL

KIAH 200253Z 13008KT 10SM FEW022 SCT250 25/23 A3002 RMK AO2 SLP164 T02500228 51015

KDFW/DFW  -  ダラス・フォートワース

観測日時
2020-10-20 02:53 (UTC) (54分前)
気温
15
露点
12.2
湿数
2.8
相対湿度
83.3%
QNH
1015.9hPa
推定現地気圧
993.8hPa
推定海面気圧
1015.8hPa
体感温度
8.1
(無風時)
16.8
HI
14.7
気温前日比
-4.4
体感温度前日比
-2.2
HI前日比
-4.4
水平視程
>10SM
鉛直視程
データなし
雲底高度
No dense clouds
V/I
VMC (VFR)
RVR
No RVR data
卓越風
5kt from 20°
ガスト
No gust
降水
報告なし
その他の天気
報告なし
目立った雲なし

KDFW 200253Z 02005KT 10SM CLR 15/12 A3000 RMK AO2 SLP154 T01500122 51003

KAUS/AUS  -  オースティン・バーグストロム

観測日時
2020-10-20 02:53 (UTC) (54分前)
気温
27.2
露点
22.2
湿数
5
相対湿度
74.2%
QNH
1014.6hPa
推定現地気圧
994.9hPa
推定海面気圧
1013.7hPa
体感温度
21.5
(無風時)
26.4
HI
29.6
気温前日比
+1.6
体感温度前日比
+1.9
HI前日比
+3.6
水平視程
>10SM
鉛直視程
データなし
雲底高度
No dense clouds
V/I
VMC (VFR)
RVR
No RVR data
卓越風
10kt from 160°
ガスト
No gust
降水
報告なし
その他の天気
報告なし
少しの雲 @ 6000ft AGL

KAUS 200253Z 16010KT 10SM FEW060 27/22 A2996 RMK AO2 SLP133 T02720222 51014

KDEN/DEN  -  デンバー

観測日時
2020-10-20 02:53 (UTC) (54分前)
気温
10.6
露点
0.6
湿数
10
相対湿度
49.9%
QNH
1014.6hPa
推定現地気圧
830.7hPa
推定海面気圧
1010.0hPa
体感温度
2.2
(無風時)
13.1
HI
9
気温前日比
+8.4
体感温度前日比
+12.2
HI前日比
+8.5
水平視程
>10SM
鉛直視程
データなし
雲底高度
20000ft AGL
V/I
VMC (VFR)
RVR
No RVR data
卓越風
7kt from 270°
ガスト
No gust
降水
報告なし
その他の天気
報告なし
少しの雲 @ 16000ft AGL / 隙間のある雲 @ 20000ft AGL

KDEN 200253Z 27007KT 10SM FEW160 BKN200 11/01 A2996 RMK AO2 SLP104 T01060006 53000

KPHX/PHX  -  フェニックス・スカイハーバー

観測日時
2020-10-20 02:51 (UTC) (56分前)
気温
29.4
露点
2.2
湿数
27.2
相対湿度
17.5%
QNH
1009.5hPa
推定現地気圧
968.7hPa
推定海面気圧
1007.1hPa
体感温度
23.8
(無風時)
23.8
HI
27.7
気温前日比
+0.5
体感温度前日比
+2.7
HI前日比
+0.4
水平視程
>10SM
鉛直視程
データなし
雲底高度
No dense clouds
V/I
VMC (VFR)
RVR
No RVR data
卓越風
静穏
ガスト
No gust
降水
報告なし
その他の天気
報告なし
少しの雲 @ 8000ft AGL

KPHX 200251Z 00000KT 10SM FEW080 29/02 A2981 RMK AO2 SLP076 FU FEW080 T02940022 53002

KTUS/TUS  -  ツーソン

観測日時
2020-10-20 02:53 (UTC) (54分前)
気温
26.7
露点
-3.9
湿数
30.6
相対湿度
13.1%
QNH
1013.9hPa
推定現地気圧
920.7hPa
推定海面気圧
1008.3hPa
体感温度
18.1
(無風時)
21.9
HI
25.7
気温前日比
±0
体感温度前日比
-3.7
HI前日比
+0.1
水平視程
>10SM
鉛直視程
データなし
雲底高度
No dense clouds
V/I
VMC (VFR)
RVR
No RVR data
卓越風
7kt from 330°
ガスト
No gust
降水
報告なし
その他の天気
報告なし
目立った雲なし

KTUS 200253Z 33007KT 10SM CLR 27/M04 A2994 RMK AO2 SLP099 T02671039 53007

KSFO/SFO  -  サンフランシスコ

観測日時
2020-10-20 02:56 (UTC) (51分前)
気温
15.6
露点
11.7
湿数
3.9
相対湿度
77.6%
QNH
1013.5hPa
推定現地気圧
1013.0hPa
推定海面気圧
1013.5hPa
体感温度
5.1
(無風時)
17.2
HI
15.2
気温前日比
-3.8
体感温度前日比
-6.4
HI前日比
-3.8
水平視程
>10SM
鉛直視程
データなし
雲底高度
No dense clouds
V/I
VMC (VFR)
RVR
No RVR data
卓越風
15kt from 320°
ガスト
No gust
降水
報告なし
その他の天気
報告なし
少しの雲 @ 700ft AGL

KSFO 200256Z 32015KT 10SM FEW007 16/12 A2993 RMK AO2 SLP133 T01560117 53003

株式会社マネーパートナーズ 【Manepa Card】

KLAX/LAX  -  ロサンゼルス

観測日時
2020-10-20 02:53 (UTC) (54分前)
気温
18.3
露点
15.6
湿数
2.7
相対湿度
84.3%
QNH
1013.2hPa
推定現地気圧
1008.5hPa
推定海面気圧
1013.1hPa
体感温度
11.1
(無風時)
19.6
HI
18.4
気温前日比
-1.1
体感温度前日比
-1.1
HI前日比
-1.3
水平視程
>10SM
鉛直視程
データなし
雲底高度
900ft AGL
V/I
SVMC (SVFR)
RVR
No RVR data
卓越風
7kt from 260°
ガスト
No gust
降水
報告なし
その他の天気
報告なし
全天を覆う雲 @ 900ft AGL

KLAX 200253Z 26007KT 10SM OVC009 18/16 A2992 RMK AO2 SLP130 T01830156 53006

KSJC/SJC  -  サンノゼ

観測日時
2020-10-20 02:53 (UTC) (54分前)
気温
20
露点
12.8
湿数
7.2
相対湿度
63.2%
QNH
1013.5hPa
推定現地気圧
1011.2hPa
推定海面気圧
1013.4hPa
体感温度
13.4
(無風時)
20.2
HI
19.7
気温前日比
-1.1
体感温度前日比
-1.9
HI前日比
-0.9
水平視程
>10SM
鉛直視程
データなし
雲底高度
No dense clouds
V/I
VMC (VFR)
RVR
No RVR data
卓越風
6kt from 330°
ガスト
No gust
降水
報告なし
その他の天気
報告なし
目立った雲なし

KSJC 200253Z 33006KT 10SM CLR 20/13 A2993 RMK AO2 SLP135 T02000128 53009

13.4msec